Inicio METAR Ruta Wind Satelite

Informe Meteorológico

Fecha: 2020/07/02 01:12:03 Local
2020.07.02 06:12 UTC


Estado: VENCIDO
Operación:VFR
Monteria / Los Garzones, Colombia (SKMR) 08-49N 075-51W 26M
2020.07.01 2300 UTC
Wind: from the WSW (250 degrees) at 5 MPH (4 KT):0
Visibility: greater than 7 mile(s):0
Sky conditions: mostly cloudy
Weather: Cumulonimbus clouds observed
Temperature: 78 F (26 C)
Dew Point: 77 F (25 C)
Relative Humidity: 94%
Pressure (altimeter): 29.76 in. Hg (1007 hPa)
ob: SKMR 012300Z 25004KT 9999 FEW015CB BKN200 26/25 A2976 RERA RMK CB/W
cycle: 23

SKMR 012200Z 28008KT 3000 RA BKN015CB SCT070 25/24 A2976 RMK CB/N
SKMR 012100Z 32006KT 9999 TS FEW015CB SCT020 BKN200 31/25 A2975 RMK CB/VCSH/W
SKMR 012000Z 01005KT 9999 FEW015TCU SCT020 BKN200 31/25 A2976 RMK TCU/SW/W
SKMR 011900Z 30004KT 9999 SCT012 BKN200 33/25 A2979
SKMR 011800Z 29004KT 9999 FEW020 BKN200 32/25 A2981